• Join FlightAware (Why Join?)
  • Login
  • US Flag 
Trick or treat! (Boo!!) 
11:30PM EDT


 

Airport Tracker/Info


-or-


 

Live Flight TrackerFlight Track Log ✈ N449ND ✈ 12-Jun-2014 ✈ KFPR - KAPF

Flight Track Log - Related Links

Times and Time Zones

All times are in EDT time to prevent confusion due to time zone crossing. See the N449ND flight status page for this flight to view local times or setup timezone preferences in your user account.

Time Position Orientation Groundspeed Altitude Reporting Facility
EDT Latitude Longitude Course Direction KTS MPH feet Rate Location/Type
02:50PM 27.4975 -80.3781 244° Southwest 90 104 400  Level Miami Center
02:51PM 27.5000 -80.4058 276° West 87 100 1,000 480 Climbing Miami Center
02:52PM 27.5025 -80.4325 276° West 82 94 1,500 480 Climbing Miami Center
02:53PM 27.5053 -80.4572 277° West 82 94 2,000 480 Climbing Miami Center
02:54PM 27.5081 -80.4825 277° West 82 94 2,500 480 Climbing Miami Center
02:55PM 27.5122 -80.5083 280° West 81 93 3,000 300 Climbing Miami Center
02:56PM 27.4391 -80.5088 244° Southwest  Level FlightAware Approximate
02:56PM 27.5150 -80.5389 276° West 90 104 3,200  Level Miami Center
02:57PM 27.5164 -80.5650 273° West 82 94 3,700 420 Climbing Miami Center
02:58PM 27.4997 -80.5831 224° Southwest 83 96 4,100 180 Climbing Miami Center
02:59PM 27.4856 -80.6086 238° Southwest 94 108 4,100  Level Miami Center
03:00PM 27.4692 -80.6344 234° Southwest 96 110 4,100  Level Miami Center
03:01PM 27.4519 -80.6586 231° Southwest 96 110 4,100 -60 Level Miami Center
03:03PM 27.4367 -80.6814 233° Southwest 95 109 4,000 -60 Descending Miami Center
03:04PM 27.4197 -80.7092 236° Southwest 95 109 4,000 -60 Level Miami Center
03:05PM 27.4050 -80.7364 239° Southwest 96 110 3,900  Descending Miami Center
03:06PM 27.3892 -80.7578 230° Southwest 94 108 4,000  Climbing Miami Center
03:07PM 27.3725 -80.7831 233° Southwest 94 108 4,000  Level Miami Center
03:08PM 27.3572 -80.8089 236° Southwest 94 108 4,000 -60 Level Miami Center
03:09PM 27.3411 -80.8319 232° Southwest 93 107 3,900  Descending Miami Center
03:10PM 27.3222 -80.8522 224° Southwest 91 105 4,000  Climbing Miami Center
03:11PM 27.3042 -80.8722 225° Southwest 92 106 4,000  Level Miami Center
03:12PM 27.2836 -80.8947 224° Southwest 97 112 4,000  Level Miami Center
03:13PM 27.2636 -80.9147 222° Southwest 96 110 4,000  Level Miami Center
03:14PM 27.2444 -80.9369 226° Southwest 96 110 4,000  Level Miami Center
03:15PM 27.2267 -80.9567 225° Southwest 90 104 4,000  Level Miami Center
03:16PM 27.2075 -80.9783 225° Southwest 90 104 4,000  Level Miami Center
03:17PM 27.1889 -81.0006 227° Southwest 93 107 4,000  Level Miami Center
03:18PM 27.1706 -81.0186 221° Southwest 90 104 4,000  Level Miami Center
03:19PM 27.1522 -81.0392 225° Southwest 90 104 4,000  Level Miami Center
03:20PM 27.1339 -81.0606 226° Southwest 90 104 4,000  Level Miami Center
03:21PM 27.1133 -81.0822 223° Southwest 92 106 4,000  Level Miami Center
03:22PM 27.0953 -81.1022 225° Southwest 90 104 4,000  Level Miami Center
03:23PM 27.0769 -81.1233 226° Southwest 90 104 4,000  Level Miami Center
03:24PM 27.0575 -81.1419 220° Southwest 92 106 4,000  Level Miami Center
03:25PM 27.0378 -81.1642 225° Southwest 95 109 4,000  Level Miami Center
03:26PM 27.0172 -81.1869 225° Southwest 99 114 4,100  Climbing Miami Center
03:27PM 26.9956 -81.2097 223° Southwest 98 113 4,100  Level Miami Center
03:28PM 26.9767 -81.2308 225° Southwest 98 113 4,100  Level Miami Center
03:29PM 26.9564 -81.2514 222° Southwest 95 109 4,100  Level Miami Center
03:30PM 26.9381 -81.2736 227° Southwest 94 108 4,100  Level Miami Center
03:31PM 26.9169 -81.2958 223° Southwest 99 114 4,100 -60 Level Miami Center
03:32PM 26.8981 -81.3161 224° Southwest 96 110 4,000  Descending Miami Center
03:34PM 26.8803 -81.3383 228° Southwest 92 106 4,100  Climbing Miami Center
03:35PM 26.8606 -81.3589 223° Southwest 97 112 4,100  Level Miami Center
03:36PM 26.8403 -81.3797 223° Southwest 95 109 4,100  Level Miami Center
03:37PM 26.8200 -81.3972 218° Southwest 90 104 4,100  Level Miami Center
03:38PM 26.7914 -81.4017 188° South 95 109 4,100 -60 Level Miami Center
03:39PM 26.7664 -81.4064 190° South 94 108 4,000  Descending Miami Center
03:40PM 26.7394 -81.4097 186° South 93 107 4,100  Climbing Miami Center
03:41PM 26.7133 -81.4136 188° South 94 108 4,100  Level Miami Center
03:42PM 26.6828 -81.4183 188° South 103 119 4,100  Level Miami Center
03:43PM 26.6561 -81.4222 187° South 98 113 4,100  Level Miami Center
03:44PM 26.6275 -81.4267 188° South 98 113 4,100  Level Miami Center
03:45PM 26.6025 -81.4303 187° South 92 106 4,100  Level Miami Center
03:46PM 26.5736 -81.4339 186° South 95 109 4,100  Level Miami Center
03:47PM 26.5467 -81.4367 185° South 96 110 4,100  Level Miami Center
03:48PM 26.5181 -81.4400 186° South 96 110 4,100 -60 Level Miami Center
03:49PM 26.4917 -81.4433 186° South 96 110 4,000 -60 Descending Miami Center
03:50PM 26.4586 -81.4472 186° South 96 110 4,000  Level Miami Center
03:51PM 26.4300 -81.4511 187° South 96 110 4,000  Level Miami Center
03:52PM 26.4039 -81.4547 187° South 96 110 4,100  Climbing Miami Center
03:53PM 26.3753 -81.4603 190° South 96 110 4,100  Level Miami Center
03:54PM 26.3597 -81.4828 232° Southwest 94 108 4,100 -120 Level Miami Center
03:55PM 26.3433 -81.5072 233° Southwest 94 108 3,900 -420 Descending Miami Center
03:56PM 26.3289 -81.5339 239° Southwest 100 115 3,300 -540 Descending Miami Center
03:57PM 26.3103 -81.5575 229° Southwest 94 108 2,800 -480 Descending Miami Center
03:58PM 26.2942 -81.5819 234° Southwest 96 110 2,400 -300 Descending Miami Center
04:00PM 26.2806 -81.6050 237° Southwest 92 106 2,200 -240 Descending Miami Center
04:01PM 26.2628 -81.6289 230° Southwest 92 106 2,000 -240 Descending Miami Center
04:02PM 26.2486 -81.6514 235° Southwest 92 106 1,800 -300 Descending Miami Center
04:03PM 26.2322 -81.6756 233° Southwest 92 106 1,400 -300 Descending Miami Center
04:04PM 26.2178 -81.6986 235° Southwest 92 106 1,200 -300 Descending Miami Center
04:05PM 26.2031 -81.7236 237° Southwest 92 106 900 -240 Descending Miami Center
04:06PM 26.1883 -81.7386 222° Southwest 76 87 800 -240 Descending Miami Center
04:07PM 26.1744 -81.7525 222° Southwest 67 77 500 -300 Descending Miami Center
04:08PM 26.1622 -81.7653 223° Southwest 67 77 200 -300 Descending Miami Center
04:10PM 26.1500 -81.7667 228° Southwest  Level FlightAware Approximate
04:17PM 26.1524 -81.7756 287° West  Level Estimated
04:18PM 26.1524 -81.7756 North  Level Estimated
04:19PM 26.1524 -81.7756 North  Level Estimated
04:20PM 26.1524 -81.7756 North  Level Estimated
04:21PM 26.1524 -81.7756 North  Level Estimated
04:22PM 26.1524 -81.7756 North  Level Estimated
04:23PM 26.1524 -81.7756 North  Level Estimated
04:24PM 26.1524 -81.7756 North  Level Estimated